Time,TemperatureF,DewpointF,PressureIn,WindDirection,WindDirectionDegrees,WindSpeedMPH,WindSpeedGustMPH,Humidity,HourlyPrecipIn,Conditions,Clouds,dailyrainin,SoftwareType,DateUTC
2013-03-22 00:02:00,45.0,43.0,29.84,North,0,0.0,2.0,93,0.00,,,0.01,,2013-03-22 07:02:00,
2013-03-22 00:12:00,45.0,43.0,29.84,North,0,0.0,2.0,93,0.00,,,0.01,,2013-03-22 07:12:00,
2013-03-22 00:22:00,44.0,42.0,29.84,East,90,0.0,2.0,94,0.00,,,0.01,,2013-03-22 07:22:00,
2013-03-22 00:32:00,44.0,43.0,29.84,North,0,0.0,2.0,95,0.00,,,0.01,,2013-03-22 07:32:00,
2013-03-22 00:42:00,44.0,43.0,29.84,North,0,0.0,2.0,95,0.00,,,0.01,,2013-03-22 07:42:00,
2013-03-22 00:52:00,44.0,43.0,29.83,East,90,0.0,2.0,96,0.00,,,0.01,,2013-03-22 07:52:00,
2013-03-22 01:02:00,44.0,43.0,29.83,East,90,0.0,2.0,96,0.00,,,0.01,,2013-03-22 08:02:00,
2013-03-22 01:12:00,44.0,43.0,29.83,East,90,0.0,2.0,96,0.00,,,0.01,,2013-03-22 08:12:00,
2013-03-22 01:22:00,44.0,43.0,29.83,East,90,0.0,2.0,96,0.00,,,0.01,,2013-03-22 08:22:00,
2013-03-22 01:31:00,44.0,43.0,29.83,East,90,0.0,2.0,96,0.00,,,0.01,,2013-03-22 08:31:00,
2013-03-22 01:42:00,44.0,43.0,29.83,East,90,0.0,2.0,96,0.00,,,0.01,,2013-03-22 08:42:00,
2013-03-22 02:02:00,42.0,41.0,29.83,East,90,0.0,2.0,98,0.00,,,0.01,,2013-03-22 09:02:00,
2013-03-22 02:12:00,42.0,41.0,29.83,East,90,0.0,2.0,98,0.00,,,0.01,,2013-03-22 09:12:00,
2013-03-22 02:22:00,42.0,42.0,29.83,North,0,0.0,2.0,99,0.00,,,0.01,,2013-03-22 09:22:00,
2013-03-22 02:30:00,41.0,41.0,29.83,East,90,0.0,2.0,99,0.00,,,0.01,,2013-03-22 09:30:00,
2013-03-22 02:32:00,42.0,42.0,29.83,East,90,0.0,2.0,99,0.00,,,0.01,,2013-03-22 09:32:00,
2013-03-22 02:42:00,42.0,42.0,29.83,East,90,0.0,2.0,99,0.00,,,0.01,,2013-03-22 09:42:00,
2013-03-22 02:53:00,41.0,41.0,29.83,East,90,0.0,2.0,99,0.00,,,0.01,,2013-03-22 09:53:00,
2013-03-22 03:02:00,41.0,41.0,29.83,East,90,0.0,2.0,99,0.00,,,0.01,,2013-03-22 10:02:00,
2013-03-22 03:12:00,41.0,41.0,29.83,East,90,0.0,2.0,99,0.00,,,0.01,,2013-03-22 10:12:00,
2013-03-22 03:22:00,41.0,41.0,29.83,East,90,0.0,2.0,99,0.00,,,0.01,,2013-03-22 10:22:00,
2013-03-22 04:33:00,39.0,39.0,29.82,East,90,0.0,2.0,99,0.00,,,0.00,,2013-03-22 11:33:00,
2013-03-22 04:42:00,39.0,39.0,29.82,East,90,0.0,2.0,99,0.00,,,0.00,,2013-03-22 11:42:00,
2013-03-22 04:52:00,39.0,39.0,29.82,East,90,0.0,2.0,99,0.00,,,0.00,,2013-03-22 11:52:00,
2013-03-22 05:02:00,39.0,39.0,29.82,East,90,0.0,2.0,99,0.00,,,0.00,,2013-03-22 12:02:00,
2013-03-22 05:12:00,39.0,39.0,29.82,East,90,0.0,2.0,99,0.00,,,0.00,,2013-03-22 12:12:00,
2013-03-22 05:22:00,39.0,39.0,29.82,North,0,0.0,2.0,99,0.00,,,0.00,,2013-03-22 12:22:00,
2013-03-22 05:32:00,39.0,39.0,29.82,East,90,0.0,1.0,99,0.00,,,0.00,,2013-03-22 12:32:00,
2013-03-22 05:42:00,39.0,39.0,29.82,East,90,0.0,1.0,99,0.00,,,0.00,,2013-03-22 12:42:00,
2013-03-22 05:52:00,39.0,39.0,29.82,East,90,0.0,1.0,99,0.00,,,0.00,,2013-03-22 12:52:00,
2013-03-22 06:02:00,38.0,38.0,29.82,East,90,0.0,2.0,99,0.00,,,0.00,,2013-03-22 13:02:00,
2013-03-22 06:11:00,38.0,38.0,29.82,East,90,0.0,2.0,99,0.00,,,0.00,,2013-03-22 13:11:00,
2013-03-22 06:22:00,38.0,38.0,29.82,East,90,0.0,2.0,99,0.00,,,0.00,,2013-03-22 13:22:00,
2013-03-22 06:32:00,38.0,38.0,29.82,East,90,0.0,2.0,99,0.00,,,0.00,,2013-03-22 13:32:00,
2013-03-22 06:42:00,38.0,38.0,29.82,East,90,0.0,2.0,99,0.00,,,0.00,,2013-03-22 13:42:00,
2013-03-22 06:52:00,38.0,38.0,29.83,East,90,0.0,2.0,99,0.00,,,0.00,,2013-03-22 13:52:00,
2013-03-22 07:02:00,38.0,38.0,29.83,East,90,0.0,2.0,99,0.00,,,0.00,,2013-03-22 14:02:00,
2013-03-22 07:12:00,38.0,38.0,29.83,East,90,0.0,2.0,99,0.00,,,0.00,,2013-03-22 14:12:00,
2013-03-22 07:21:00,38.0,38.0,29.83,North,0,0.0,1.0,99,0.00,,,0.00,,2013-03-22 14:21:00,
2013-03-22 07:31:00,38.0,38.0,29.83,North,0,0.0,1.0,99,0.00,,,0.00,,2013-03-22 14:31:00,
2013-03-22 07:43:00,38.0,38.0,29.83,North,0,0.0,1.0,99,0.00,,,0.00,,2013-03-22 14:43:00,
2013-03-22 07:52:00,38.0,38.0,29.84,East,90,0.0,2.0,99,0.00,,,0.00,,2013-03-22 14:52:00,
2013-03-22 08:02:00,38.0,38.0,29.84,East,90,0.0,2.0,99,0.00,,,0.00,,2013-03-22 15:02:00,
2013-03-22 08:11:00,38.0,38.0,29.84,East,90,0.0,2.0,99,0.00,,,0.00,,2013-03-22 15:11:00,
2013-03-22 08:22:00,40.0,40.0,29.85,North,0,0.0,2.0,99,0.01,,,0.02,,2013-03-22 15:22:00,
2013-03-22 08:32:00,42.0,42.0,29.85,East,90,0.0,1.0,99,0.01,,,0.02,,2013-03-22 15:32:00,
2013-03-22 08:43:00,42.0,42.0,29.85,East,90,0.0,1.0,99,0.01,,,0.02,,2013-03-22 15:43:00,
2013-03-22 08:52:00,42.0,42.0,29.85,East,90,0.0,1.0,99,0.01,,,0.02,,2013-03-22 15:52:00,
2013-03-22 09:02:00,42.0,42.0,29.85,East,90,0.0,1.0,99,0.01,,,0.02,,2013-03-22 16:02:00,
2013-03-22 09:13:00,48.0,48.0,29.85,North,0,0.0,2.0,99,0.00,,,0.02,,2013-03-22 16:13:00,
2013-03-22 09:23:00,48.0,48.0,29.85,North,0,0.0,2.0,99,0.00,,,0.02,,2013-03-22 16:23:00,
2013-03-22 09:32:00,51.0,51.0,29.86,East,90,0.0,2.0,99,0.00,,,0.02,,2013-03-22 16:32:00,
2013-03-22 10:02:00,55.0,53.0,29.85,East,90,1.0,5.0,93,0.00,,,0.02,,2013-03-22 17:02:00,
2013-03-22 10:12:00,58.0,54.0,29.86,East,90,1.0,4.0,85,0.00,,,0.02,,2013-03-22 17:12:00,
2013-03-22 10:22:00,58.0,54.0,29.86,East,90,1.0,4.0,85,0.00,,,0.02,,2013-03-22 17:22:00,
2013-03-22 11:33:00,62.0,47.0,29.87,East,90,1.0,4.0,57,0.00,,,0.02,,2013-03-22 18:33:00,
2013-03-22 12:02:00,64.0,44.0,29.87,East,90,2.0,5.0,49,0.00,,,0.02,,2013-03-22 19:02:00,
2013-03-22 12:22:00,64.0,44.0,29.87,East,90,2.0,5.0,49,0.00,,,0.02,,2013-03-22 19:22:00,
2013-03-22 12:30:00,64.0,40.0,29.86,North,360,4.0,8.0,42,0.00,,,0.02,,2013-03-22 19:30:00,
2013-03-22 12:32:00,65.0,43.0,29.86,NE,45,2.0,7.0,44,0.00,,,0.02,,2013-03-22 19:32:00,
2013-03-22 12:42:00,65.0,43.0,29.86,NE,45,2.0,7.0,44,0.00,,,0.02,,2013-03-22 19:42:00,
2013-03-22 12:52:00,64.0,40.0,29.86,North,360,4.0,8.0,42,0.00,,,0.02,,2013-03-22 19:52:00,
2013-03-22 13:01:00,64.0,40.0,29.86,North,360,4.0,8.0,42,0.00,,,0.02,,2013-03-22 20:01:00,
2013-03-22 13:12:00,64.0,40.0,29.86,North,360,4.0,8.0,42,0.00,,,0.02,,2013-03-22 20:12:00,
2013-03-22 13:22:00,64.0,40.0,29.86,North,360,4.0,8.0,42,0.00,,,0.02,,2013-03-22 20:22:00,
2013-03-22 14:33:00,64.0,43.0,29.85,East,90,4.0,10.0,47,0.00,,,0.02,,2013-03-22 21:33:00,
2013-03-22 14:43:00,64.0,43.0,29.85,East,90,4.0,10.0,47,0.00,,,0.02,,2013-03-22 21:43:00,
2013-03-22 14:53:00,64.0,43.0,29.85,East,90,4.0,10.0,47,0.00,,,0.02,,2013-03-22 21:53:00,
2013-03-22 15:02:00,64.0,43.0,29.85,East,90,4.0,10.0,47,0.00,,,0.02,,2013-03-22 22:02:00,
2013-03-22 15:12:00,64.0,43.0,29.85,East,90,4.0,10.0,47,0.00,,,0.02,,2013-03-22 22:12:00,
2013-03-22 15:22:00,64.0,43.0,29.85,East,90,4.0,10.0,47,0.00,,,0.02,,2013-03-22 22:22:00,
2013-03-22 15:32:00,64.0,43.0,29.85,East,90,4.0,10.0,47,0.00,,,0.02,,2013-03-22 22:32:00,
2013-03-22 15:42:00,64.0,43.0,29.85,East,90,4.0,10.0,47,0.00,,,0.02,,2013-03-22 22:42:00,
2013-03-22 15:52:00,64.0,43.0,29.85,East,90,4.0,10.0,47,0.00,,,0.02,,2013-03-22 22:52:00,
2013-03-22 16:01:00,64.0,43.0,29.85,East,90,4.0,10.0,47,0.00,,,0.02,,2013-03-22 23:01:00,
2013-03-22 16:52:00,64.0,43.0,29.85,East,90,4.0,10.0,47,0.00,,,0.02,,2013-03-22 23:52:00,